createdAt,value
2022-11-24T00:02:12.135Z,5.61
2022-11-24T00:04:40.115Z,4.97
2022-11-24T00:07:08.006Z,5.19
2022-11-24T00:09:37.380Z,5.11
2022-11-24T00:12:05.799Z,4.91
2022-11-24T00:14:33.885Z,5.50
2022-11-24T00:17:02.026Z,5.12
2022-11-24T00:19:29.971Z,5.67
2022-11-24T00:21:57.958Z,5.84
2022-11-24T00:24:25.854Z,5.47
2022-11-24T00:26:55.042Z,5.51
2022-11-24T00:29:23.095Z,5.81
2022-11-24T00:31:50.916Z,6.03
2022-11-24T00:34:18.890Z,5.65
2022-11-24T00:36:46.876Z,5.66
2022-11-24T00:39:17.298Z,5.47
2022-11-24T00:41:46.226Z,5.00
2022-11-24T00:44:15.631Z,5.17
2022-11-24T00:46:43.879Z,5.32
2022-11-24T00:49:11.921Z,5.49
2022-11-24T00:51:39.862Z,5.29
2022-11-24T00:54:07.912Z,4.99
2022-11-24T00:56:35.950Z,4.93
2022-11-24T00:59:04.272Z,4.80
2022-11-24T01:01:33.633Z,4.92
2022-11-24T01:04:02.606Z,5.14
2022-11-24T01:06:32.374Z,4.95
2022-11-24T01:09:00.656Z,4.88
2022-11-24T01:11:50.946Z,5.22
2022-11-24T01:14:19.438Z,5.27
2022-11-24T01:16:49.008Z,5.37
2022-11-24T01:19:17.019Z,5.48
2022-11-24T01:21:44.929Z,5.30
2022-11-24T01:24:13.326Z,5.44
2022-11-24T01:26:41.407Z,5.57
2022-11-24T01:29:11.879Z,5.34
2022-11-24T01:31:40.133Z,5.41
2022-11-24T01:34:09.730Z,4.89
2022-11-24T01:36:37.912Z,5.14
2022-11-24T01:39:05.963Z,4.73
2022-11-24T01:41:35.965Z,4.49
2022-11-24T01:44:22.476Z,4.87
2022-11-24T01:46:56.426Z,4.94
2022-11-24T01:49:28.900Z,4.97
2022-11-24T01:52:00.671Z,5.02
2022-11-24T01:54:32.623Z,5.17
2022-11-24T01:57:13.864Z,5.22
2022-11-24T01:59:42.552Z,5.14
2022-11-24T02:02:10.907Z,5.20
2022-11-24T02:04:41.404Z,5.27
2022-11-24T02:07:10.008Z,5.44
2022-11-24T02:09:44.482Z,5.37
2022-11-24T02:12:12.847Z,5.54
2022-11-24T02:14:43.139Z,5.42
2022-11-24T02:17:11.104Z,5.41
2022-11-24T02:19:49.816Z,5.17
2022-11-24T02:22:23.215Z,5.20
2022-11-24T02:24:56.422Z,5.17
2022-11-24T02:27:25.687Z,5.20
2022-11-24T02:29:53.854Z,5.55
2022-11-24T02:32:21.758Z,5.78
2022-11-24T02:34:49.726Z,5.87
2022-11-24T02:37:17.696Z,5.75
2022-11-24T02:39:45.559Z,5.32
2022-11-24T02:42:14.721Z,5.11
2022-11-24T02:44:48.862Z,5.50
2022-11-24T02:47:16.938Z,5.26
2022-11-24T02:49:44.810Z,5.37
2022-11-24T02:52:12.786Z,5.47
2022-11-24T02:54:40.778Z,5.65
2022-11-24T02:57:09.079Z,5.41
2022-11-24T02:59:36.972Z,5.27
2022-11-24T03:02:06.366Z,4.88
2022-11-24T03:04:34.443Z,4.94
2022-11-24T03:07:02.742Z,4.67
2022-11-24T03:09:31.881Z,4.90
2022-11-24T03:11:59.831Z,5.23
2022-11-24T03:14:27.819Z,5.29
2022-11-24T03:16:55.860Z,4.62
2022-11-24T03:19:25.201Z,4.97
2022-11-24T03:21:53.123Z,5.08
2022-11-24T03:24:21.056Z,4.92
2022-11-24T03:26:49.067Z,5.06
2022-11-24T03:29:16.963Z,4.77
2022-11-24T03:31:44.947Z,5.09
2022-11-24T03:34:12.884Z,5.35
2022-11-24T03:36:42.212Z,4.97
2022-11-24T03:39:10.243Z,4.78
2022-11-24T03:41:38.092Z,5.09
2022-11-24T03:44:06.330Z,4.91
2022-11-24T03:46:34.455Z,4.89
2022-11-24T03:49:02.695Z,4.55
2022-11-24T03:51:30.619Z,4.74
2022-11-24T03:54:00.006Z,4.91
2022-11-24T03:56:27.939Z,4.94
2022-11-24T03:58:56.101Z,5.11
2022-11-24T04:01:24.073Z,4.56
2022-11-24T04:03:52.011Z,4.48
2022-11-24T04:06:20.066Z,4.82
2022-11-24T04:08:48.039Z,4.54
2022-11-24T04:11:31.251Z,4.65
2022-11-24T04:13:59.206Z,4.78
2022-11-24T04:16:27.296Z,4.66
2022-11-24T04:18:55.265Z,4.56
2022-11-24T04:21:23.163Z,4.77
2022-11-24T04:23:51.313Z,4.93
2022-11-24T04:26:20.690Z,4.31
2022-11-24T04:28:48.654Z,4.79
2022-11-24T04:31:16.902Z,4.40
2022-11-24T04:33:45.024Z,4.18
2022-11-24T04:36:12.928Z,4.24
2022-11-24T04:39:19.815Z,4.19
2022-11-24T04:41:30.163Z,4.46
2022-11-24T04:43:58.052Z,4.59
2022-11-24T04:46:26.133Z,5.03
2022-11-24T04:48:54.074Z,4.89
2022-11-24T04:51:22.090Z,4.77
2022-11-24T04:53:50.373Z,4.72
2022-11-24T04:56:18.339Z,4.91
2022-11-24T04:58:49.439Z,4.91
2022-11-24T05:01:17.419Z,5.07
2022-11-24T05:03:45.471Z,5.01
2022-11-24T05:06:13.453Z,5.14
2022-11-24T05:08:41.460Z,4.57
2022-11-24T05:11:09.399Z,4.93
2022-11-24T05:13:37.287Z,5.04
2022-11-24T05:16:06.849Z,5.05
2022-11-24T05:18:34.877Z,5.11
2022-11-24T05:21:03.020Z,5.18
2022-11-24T05:23:31.183Z,5.24
2022-11-24T05:26:01.094Z,5.29
2022-11-24T05:28:30.139Z,4.76
2022-11-24T05:31:00.611Z,4.85
2022-11-24T05:33:33.289Z,5.01
2022-11-24T05:36:03.159Z,5.24
2022-11-24T05:38:31.276Z,5.27
2022-11-24T05:41:01.778Z,5.09
2022-11-24T05:43:30.376Z,5.13
2022-11-24T05:46:00.312Z,5.28
2022-11-24T05:48:29.823Z,5.27
2022-11-24T05:50:59.627Z,5.17
2022-11-24T05:53:27.642Z,5.24
2022-11-24T05:55:55.624Z,5.00
2022-11-24T05:58:23.439Z,5.11
2022-11-24T06:00:51.372Z,4.04
2022-11-24T06:03:19.248Z,4.14
2022-11-24T06:05:48.829Z,4.64
2022-11-24T06:08:16.965Z,4.75
2022-11-24T06:10:44.823Z,5.04
2022-11-24T06:13:12.864Z,4.49
2022-11-24T06:15:41.454Z,4.63
2022-11-24T06:18:09.323Z,4.77
2022-11-24T06:20:37.220Z,5.03
2022-11-24T06:23:06.453Z,4.70
2022-11-24T06:25:34.792Z,4.95
2022-11-24T06:28:04.848Z,5.21
2022-11-24T06:30:32.791Z,4.67
2022-11-24T06:33:00.992Z,4.67
2022-11-24T06:35:28.940Z,4.73
2022-11-24T06:37:56.811Z,4.71
2022-11-24T06:40:26.147Z,4.92
2022-11-24T06:42:54.331Z,4.89
2022-11-24T06:45:23.425Z,5.18
2022-11-24T06:47:54.335Z,5.23
2022-11-24T06:50:22.444Z,5.21
2022-11-24T06:52:50.476Z,5.40
2022-11-24T06:55:18.462Z,5.45
2022-11-24T06:57:47.721Z,5.07
2022-11-24T07:00:16.431Z,5.29
2022-11-24T07:02:46.090Z,4.83
2022-11-24T07:05:14.378Z,5.09
2022-11-24T07:07:42.388Z,4.94
2022-11-24T07:10:10.717Z,4.81
2022-11-24T07:12:38.612Z,5.02
2022-11-24T07:15:09.526Z,5.02
2022-11-24T07:17:38.041Z,4.48
2022-11-24T07:20:07.558Z,4.79
2022-11-24T07:22:36.122Z,5.00
2022-11-24T07:25:07.291Z,5.12
2022-11-24T07:27:35.240Z,4.99
2022-11-24T07:30:03.433Z,5.27
2022-11-24T07:32:32.987Z,4.71
2022-11-24T07:35:01.009Z,4.92
2022-11-24T07:37:31.651Z,4.69
2022-11-24T07:39:59.870Z,5.09
2022-11-24T07:42:28.591Z,5.24
2022-11-24T07:44:56.573Z,4.61
2022-11-24T07:47:24.505Z,4.98
2022-11-24T07:49:53.914Z,5.24
2022-11-24T07:52:21.795Z,5.35
2022-11-24T07:54:49.772Z,5.54
2022-11-24T07:57:17.653Z,5.66
2022-11-24T07:59:45.698Z,5.48
2022-11-24T08:02:14.387Z,5.53
2022-11-24T08:04:42.465Z,5.49
2022-11-24T08:07:11.812Z,5.56
2022-11-24T08:09:39.884Z,5.69
2022-11-24T08:12:08.244Z,5.87
2022-11-24T08:14:36.437Z,5.96
2022-11-24T08:17:04.580Z,5.37
2022-11-24T08:19:32.748Z,5.54
2022-11-24T08:22:00.714Z,5.72
2022-11-24T08:24:31.446Z,5.83
2022-11-24T08:26:59.606Z,6.05
2022-11-24T08:29:29.640Z,6.12
2022-11-24T08:31:58.386Z,6.12
2022-11-24T08:34:27.041Z,6.06
2022-11-24T08:36:55.008Z,5.94
2022-11-24T08:39:23.062Z,5.86
2022-11-24T08:41:52.378Z,5.86
2022-11-24T08:44:20.312Z,5.73
2022-11-24T08:46:48.317Z,5.15
2022-11-24T08:49:16.185Z,5.56
2022-11-24T08:51:44.336Z,5.73
2022-11-24T08:54:13.454Z,5.77
2022-11-24T08:56:41.379Z,6.06
2022-11-24T08:59:13.248Z,5.14
2022-11-24T09:01:41.735Z,5.51
2022-11-24T09:04:09.790Z,5.99
2022-11-24T09:06:37.736Z,6.12
2022-11-24T09:09:05.567Z,6.27
2022-11-24T09:11:35.020Z,6.12
2022-11-24T09:14:03.105Z,6.39
2022-11-24T09:16:32.383Z,6.44
2022-11-24T09:19:02.039Z,6.10
2022-11-24T09:21:31.442Z,6.64
2022-11-24T09:23:59.282Z,6.37
2022-11-24T09:26:28.639Z,6.40
2022-11-24T09:28:58.082Z,6.04
2022-11-24T09:31:28.605Z,6.01
2022-11-24T09:33:58.212Z,6.65
2022-11-24T09:36:26.681Z,6.59
2022-11-24T09:38:54.729Z,6.80
2022-11-24T09:41:40.409Z,6.81
2022-11-24T09:44:28.221Z,6.67
2022-11-24T09:47:04.142Z,6.83
2022-11-24T09:49:39.672Z,7.12
2022-11-24T09:52:14.104Z,7.10
2022-11-24T09:54:50.203Z,6.95
2022-11-24T09:57:20.903Z,6.91
2022-11-24T09:59:48.806Z,7.06
2022-11-24T10:02:16.701Z,7.01
2022-11-24T10:04:48.101Z,7.16
2022-11-24T10:07:24.318Z,6.66
2022-11-24T10:10:04.570Z,6.79
2022-11-24T10:12:46.879Z,6.71
2022-11-24T10:15:25.554Z,6.68
2022-11-24T10:18:14.925Z,6.23
2022-11-24T10:20:56.097Z,6.53
2022-11-24T10:23:55.661Z,6.72
2022-11-24T10:26:31.927Z,7.13
2022-11-24T10:29:00.010Z,7.40
2022-11-24T10:31:35.279Z,7.43
2022-11-24T10:34:14.782Z,6.61
2022-11-24T10:36:50.544Z,7.12
2022-11-24T10:39:24.925Z,7.43
2022-11-24T10:41:55.975Z,7.30
2022-11-24T10:44:24.072Z,7.61
2022-11-24T10:46:52.429Z,7.78
2022-11-24T10:49:24.822Z,7.87
2022-11-24T10:52:05.920Z,8.19
2022-11-24T10:54:35.903Z,8.03
2022-11-24T10:57:04.095Z,8.31
2022-11-24T10:59:38.668Z,8.76
2022-11-24T11:02:32.369Z,9.09
2022-11-24T11:05:20.555Z,8.98
2022-11-24T11:07:50.003Z,8.67
2022-11-24T11:10:21.904Z,8.80
2022-11-24T11:12:51.056Z,8.42
2022-11-24T11:15:27.397Z,8.67
2022-11-24T11:17:59.509Z,8.69
2022-11-24T11:20:32.910Z,8.27
2022-11-24T11:23:15.039Z,8.51
2022-11-24T11:25:43.696Z,8.95
2022-11-24T11:28:27.825Z,8.97
2022-11-24T11:31:16.427Z,9.01
2022-11-24T11:34:06.174Z,8.91
2022-11-24T11:36:40.614Z,8.98
2022-11-24T11:39:21.536Z,8.38
2022-11-24T11:41:53.154Z,8.57
2022-11-24T11:44:33.664Z,8.87
2022-11-24T11:47:10.271Z,8.56
2022-11-24T11:49:40.301Z,8.27
2022-11-24T11:52:35.713Z,8.22
2022-11-24T11:55:25.915Z,8.60
2022-11-24T11:58:07.944Z,9.01
2022-11-24T12:00:40.528Z,8.85
2022-11-24T12:03:29.591Z,8.34
2022-11-24T12:06:08.405Z,9.00
2022-11-24T12:09:17.804Z,9.07
2022-11-24T12:11:40.391Z,9.06
2022-11-24T12:14:18.481Z,9.03
2022-11-24T12:16:54.431Z,9.20
2022-11-24T12:19:41.051Z,9.05
2022-11-24T12:22:20.270Z,8.85
2022-11-24T12:24:56.802Z,8.77
2022-11-24T12:27:39.057Z,9.13
2022-11-24T12:30:12.505Z,9.28
2022-11-24T12:33:05.730Z,9.52
2022-11-24T12:35:38.321Z,9.18
2022-11-24T12:38:26.075Z,9.58
2022-11-24T12:41:39.651Z,9.69
2022-11-24T12:44:01.785Z,9.47
2022-11-24T12:46:39.766Z,9.63
2022-11-24T12:49:18.836Z,9.53
2022-11-24T12:51:53.578Z,9.53
2022-11-24T12:54:22.871Z,9.40
2022-11-24T12:56:57.058Z,9.44
2022-11-24T12:59:35.767Z,9.60
2022-11-24T13:02:17.935Z,9.73
2022-11-24T13:04:52.814Z,9.78
2022-11-24T13:07:28.214Z,9.56
2022-11-24T13:13:19.604Z,9.57
2022-11-24T13:19:10.638Z,9.59
2022-11-24T13:22:01.091Z,9.79
2022-11-24T13:24:31.859Z,9.78
2022-11-24T13:27:37.119Z,9.75
2022-11-24T13:30:52.437Z,9.10
2022-11-24T13:33:39.881Z,9.01
2022-11-24T13:36:32.777Z,8.86
2022-11-24T13:39:02.533Z,8.69
2022-11-24T13:42:10.397Z,8.93
2022-11-24T13:44:59.535Z,9.05
2022-11-24T13:47:36.257Z,9.22
2022-11-24T13:50:13.916Z,9.06
2022-11-24T13:52:46.358Z,9.27
2022-11-24T13:55:28.018Z,9.44
2022-11-24T13:58:00.170Z,9.62
2022-11-24T14:00:30.761Z,9.28
2022-11-24T14:03:02.100Z,9.62
2022-11-24T14:05:37.862Z,9.52
2022-11-24T14:08:08.227Z,9.35
2022-11-24T14:10:38.351Z,9.63
2022-11-24T14:13:26.489Z,9.39
2022-11-24T14:16:05.168Z,9.35
2022-11-24T14:18:34.111Z,9.30
2022-11-24T14:21:23.338Z,9.57
2022-11-24T14:23:53.737Z,9.65
2022-11-24T14:26:23.584Z,9.46
2022-11-24T14:28:52.434Z,9.70
2022-11-24T14:31:24.002Z,9.58
2022-11-24T14:34:07.797Z,9.54
2022-11-24T14:36:37.095Z,9.67
2022-11-24T14:39:06.044Z,9.59
2022-11-24T14:41:35.028Z,9.63
2022-11-24T14:44:18.000Z,9.68
2022-11-24T14:46:46.129Z,9.73
2022-11-24T14:49:19.896Z,9.64
2022-11-24T14:51:55.860Z,9.52
2022-11-24T14:54:24.658Z,9.36
2022-11-24T14:57:01.959Z,9.59
2022-11-24T14:59:31.436Z,9.51
2022-11-24T15:02:00.632Z,9.53
2022-11-24T15:05:02.304Z,9.18
2022-11-24T15:07:26.647Z,9.25
2022-11-24T15:09:58.048Z,9.41
2022-11-24T15:12:30.583Z,9.32
2022-11-24T15:15:02.336Z,9.47
2022-11-24T15:17:31.050Z,9.54
2022-11-24T15:20:03.114Z,9.47
2022-11-24T15:22:41.316Z,9.56
2022-11-24T15:25:36.451Z,9.29
2022-11-24T15:28:04.565Z,9.41
2022-11-24T15:30:36.012Z,9.44
2022-11-24T15:33:04.513Z,9.33
2022-11-24T15:35:33.642Z,9.24
2022-11-24T15:38:02.923Z,9.26
2022-11-24T15:40:31.636Z,9.27
2022-11-24T15:43:03.461Z,9.32
2022-11-24T15:45:35.373Z,9.23
2022-11-24T15:48:03.289Z,9.18
2022-11-24T15:50:31.315Z,9.37
2022-11-24T15:52:59.374Z,9.36
2022-11-24T15:55:28.688Z,9.18
2022-11-24T15:57:56.533Z,9.21
2022-11-24T16:00:25.005Z,9.29
2022-11-24T16:02:52.919Z,9.35
2022-11-24T16:05:20.760Z,9.45
2022-11-24T16:07:48.706Z,9.28
2022-11-24T16:10:25.616Z,9.28
2022-11-24T16:12:54.942Z,9.24
2022-11-24T16:15:22.862Z,9.35
2022-11-24T16:17:50.867Z,9.27
2022-11-24T16:20:18.862Z,9.05
2022-11-24T16:22:47.279Z,8.63
2022-11-24T16:25:15.387Z,8.73
2022-11-24T16:27:43.380Z,8.83
2022-11-24T16:30:14.377Z,8.92
2022-11-24T16:32:42.583Z,9.00
2022-11-24T16:35:10.728Z,9.23
2022-11-24T16:37:38.758Z,9.18
2022-11-24T16:40:07.862Z,9.17
2022-11-24T16:42:35.814Z,8.83
2022-11-24T16:45:03.782Z,8.93
2022-11-24T16:47:33.036Z,8.91
2022-11-24T16:50:00.941Z,9.01
2022-11-24T16:52:28.844Z,9.05
2022-11-24T16:54:56.677Z,8.83
2022-11-24T16:57:24.545Z,8.66
2022-11-24T16:59:52.391Z,8.13
2022-11-24T17:02:20.477Z,8.66
2022-11-24T17:04:52.269Z,8.35
2022-11-24T17:07:20.972Z,8.41
2022-11-24T17:09:49.465Z,8.17
2022-11-24T17:12:17.403Z,8.37
2022-11-24T17:15:03.110Z,8.56
2022-11-24T17:17:33.311Z,8.73
2022-11-24T17:20:02.561Z,8.79
2022-11-24T17:22:30.694Z,8.80
2022-11-24T17:24:58.548Z,8.67
2022-11-24T17:27:26.551Z,8.71
2022-11-24T17:29:54.573Z,8.71
2022-11-24T17:32:22.451Z,8.73
2022-11-24T17:34:50.345Z,8.69
2022-11-24T17:37:19.585Z,8.61
2022-11-24T17:40:12.557Z,8.72
2022-11-24T17:42:36.893Z,8.79
2022-11-24T17:45:05.480Z,8.87
2022-11-24T17:47:33.346Z,8.70
2022-11-24T17:50:01.205Z,8.53
2022-11-24T17:52:31.825Z,8.82
2022-11-24T17:54:59.997Z,8.88
2022-11-24T17:57:27.996Z,8.93
2022-11-24T17:59:55.903Z,8.99
2022-11-24T18:02:23.815Z,8.77
2022-11-24T18:04:51.770Z,8.72
2022-11-24T18:07:19.682Z,8.77
2022-11-24T18:09:49.027Z,8.73
2022-11-24T18:12:16.887Z,8.91
2022-11-24T18:14:44.760Z,8.85
2022-11-24T18:17:12.643Z,8.60
2022-11-24T18:19:40.537Z,8.63
2022-11-24T18:22:08.352Z,8.76
2022-11-24T18:24:36.498Z,8.74
2022-11-24T18:27:06.138Z,8.82
2022-11-24T18:29:34.019Z,8.85
2022-11-24T18:32:02.270Z,8.82
2022-11-24T18:34:30.335Z,8.83
2022-11-24T18:36:58.203Z,8.88
2022-11-24T18:39:26.556Z,8.74
2022-11-24T18:41:54.434Z,8.49
2022-11-24T18:44:23.754Z,8.44
2022-11-24T18:46:51.682Z,8.51
2022-11-24T18:49:19.491Z,8.57
2022-11-24T18:51:47.274Z,8.60
2022-11-24T18:54:15.107Z,8.60
2022-11-24T18:56:42.968Z,8.65
2022-11-24T18:59:10.802Z,8.57
2022-11-24T19:01:40.073Z,8.65
2022-11-24T19:04:07.992Z,8.59
2022-11-24T19:06:38.665Z,8.63
2022-11-24T19:09:08.225Z,8.70
2022-11-24T19:11:38.931Z,8.51
2022-11-24T19:14:09.852Z,8.35
2022-11-24T19:16:38.056Z,8.32
2022-11-24T19:19:07.803Z,8.29
2022-11-24T19:21:38.186Z,8.41
2022-11-24T19:24:07.693Z,8.40
2022-11-24T19:26:35.855Z,8.38
2022-11-24T19:29:04.574Z,8.30
2022-11-24T19:31:33.085Z,8.26
2022-11-24T19:34:02.888Z,8.26
2022-11-24T19:36:32.644Z,8.18
2022-11-24T19:39:00.922Z,7.97
2022-11-24T19:41:31.112Z,7.98
2022-11-24T19:44:00.020Z,8.04
2022-11-24T19:46:29.793Z,8.15
2022-11-24T19:49:00.588Z,7.98
2022-11-24T19:51:31.288Z,7.97
2022-11-24T19:54:01.407Z,7.96
2022-11-24T19:56:31.456Z,7.86
2022-11-24T19:58:59.471Z,7.90
2022-11-24T20:01:29.650Z,7.96
2022-11-24T20:03:59.303Z,7.85
2022-11-24T20:06:28.185Z,7.70
2022-11-24T20:08:57.932Z,7.70
2022-11-24T20:11:29.577Z,7.58
2022-11-24T20:13:58.321Z,7.75
2022-11-24T20:16:28.269Z,7.76
2022-11-24T20:18:57.709Z,7.77
2022-11-24T20:21:28.585Z,7.78
2022-11-24T20:23:58.680Z,7.59
2022-11-24T20:26:29.708Z,7.70
2022-11-24T20:28:59.445Z,7.75
2022-11-24T20:31:29.272Z,7.69
2022-11-24T20:33:57.591Z,7.67
2022-11-24T20:36:27.927Z,7.71
2022-11-24T20:38:56.181Z,7.68
2022-11-24T20:41:26.468Z,7.66
2022-11-24T20:43:57.359Z,7.61
2022-11-24T20:46:27.102Z,7.69
2022-11-24T20:48:55.587Z,7.69
2022-11-24T20:51:25.577Z,7.53
2022-11-24T20:53:54.887Z,7.55
2022-11-24T20:56:24.383Z,7.54
2022-11-24T20:58:52.891Z,7.41
2022-11-24T21:01:24.595Z,7.30
2022-11-24T21:03:55.408Z,7.38
2022-11-24T21:06:23.810Z,7.32
2022-11-24T21:08:52.346Z,7.31
2022-11-24T21:11:21.154Z,7.34
2022-11-24T21:13:50.166Z,7.43
2022-11-24T21:16:19.908Z,7.30
2022-11-24T21:18:51.166Z,7.40
2022-11-24T21:21:20.408Z,7.55
2022-11-24T21:23:48.954Z,7.56
2022-11-24T21:26:18.302Z,7.63
2022-11-24T21:28:48.245Z,7.67
2022-11-24T21:31:18.292Z,7.78
2022-11-24T21:33:47.595Z,7.78
2022-11-24T21:36:18.866Z,7.69
2022-11-24T21:38:51.619Z,7.59
2022-11-24T21:41:20.124Z,7.63
2022-11-24T21:43:48.386Z,7.60
2022-11-24T21:46:16.499Z,7.51
2022-11-24T21:48:44.544Z,7.46
2022-11-24T21:51:15.527Z,7.54
2022-11-24T21:53:46.526Z,7.53
2022-11-24T21:56:19.655Z,7.57
2022-11-24T21:58:49.017Z,7.58
2022-11-24T22:01:19.555Z,7.50
2022-11-24T22:03:47.757Z,7.59
2022-11-24T22:06:17.757Z,7.71
2022-11-24T22:08:47.734Z,7.56
2022-11-24T22:11:17.546Z,7.71
2022-11-24T22:13:45.971Z,7.60
2022-11-24T22:16:15.148Z,7.69
2022-11-24T22:18:44.342Z,7.79
2022-11-24T22:21:13.841Z,7.91
2022-11-24T22:23:41.680Z,7.84
2022-11-24T22:26:14.253Z,7.96
2022-11-24T22:28:42.931Z,8.00
2022-11-24T22:31:12.377Z,7.96
2022-11-24T22:33:40.312Z,8.07
2022-11-24T22:36:09.176Z,8.04
2022-11-24T22:38:37.169Z,8.00
2022-11-24T22:41:07.003Z,8.05
2022-11-24T22:43:38.472Z,8.15
2022-11-24T22:46:07.354Z,8.15
2022-11-24T22:48:35.631Z,7.92
2022-11-24T22:51:04.883Z,7.99
2022-11-24T22:53:32.757Z,8.17
2022-11-24T22:56:05.047Z,8.05
2022-11-24T22:58:33.584Z,7.95
2022-11-24T23:01:07.213Z,7.79
2022-11-24T23:03:35.865Z,8.00
2022-11-24T23:06:04.932Z,8.09
2022-11-24T23:08:34.768Z,8.12
2022-11-24T23:11:04.414Z,8.08
2022-11-24T23:13:32.467Z,8.07
2022-11-24T23:16:04.132Z,8.14
2022-11-24T23:18:33.710Z,8.25
2022-11-24T23:21:06.934Z,8.20
2022-11-24T23:23:34.754Z,8.15
2022-11-24T23:26:03.374Z,8.11
2022-11-24T23:28:31.760Z,8.18
2022-11-24T23:31:03.916Z,8.10
2022-11-24T23:33:33.634Z,8.04
2022-11-24T23:36:03.131Z,8.17
2022-11-24T23:38:32.788Z,8.11
2022-11-24T23:41:01.738Z,8.15
2022-11-24T23:43:29.631Z,8.16
2022-11-24T23:46:03.222Z,8.30
2022-11-24T23:48:31.212Z,8.15
2022-11-24T23:51:04.761Z,8.31
2022-11-24T23:53:32.804Z,8.31
2022-11-24T23:56:00.909Z,8.12
2022-11-24T23:58:29.142Z,8.11
